createdAt,value
2023-06-12T00:01:37.686Z,12.35
2023-06-12T00:04:05.588Z,12.43
2023-06-12T00:06:34.003Z,12.70
2023-06-12T00:09:01.486Z,11.95
2023-06-12T00:11:28.994Z,13.13
2023-06-12T00:13:56.405Z,12.52
2023-06-12T00:16:24.063Z,10.98
2023-06-12T00:18:53.109Z,12.38
2023-06-12T00:21:24.506Z,12.20
2023-06-12T00:23:52.087Z,12.30
2023-06-12T00:26:19.416Z,12.07
2023-06-12T00:28:46.753Z,12.73
2023-06-12T00:31:14.094Z,11.55
2023-06-12T00:33:42.396Z,12.43
2023-06-12T00:36:10.097Z,11.63
2023-06-12T00:38:37.666Z,11.30
2023-06-12T00:41:04.998Z,12.35
2023-06-12T00:43:32.277Z,12.38
2023-06-12T00:45:59.619Z,11.15
2023-06-12T00:48:27.158Z,11.77
2023-06-12T00:50:57.303Z,11.93
2023-06-12T00:53:24.765Z,11.88
2023-06-12T00:55:52.211Z,11.23
2023-06-12T00:58:19.656Z,11.50
2023-06-12T01:00:49.401Z,12.13
2023-06-12T01:03:18.206Z,11.93
2023-06-12T01:05:47.292Z,11.27
2023-06-12T01:08:29.574Z,10.48
2023-06-12T01:11:10.004Z,11.45
2023-06-12T01:13:37.781Z,10.52
2023-06-12T01:16:05.512Z,10.05
2023-06-12T01:18:34.132Z,10.60
2023-06-12T01:21:10.671Z,10.98
2023-06-12T01:23:41.160Z,10.57
2023-06-12T01:26:19.970Z,10.70
2023-06-12T01:29:10.736Z,10.25
2023-06-12T01:31:57.839Z,9.75
2023-06-12T01:34:57.522Z,9.57
2023-06-12T01:37:52.757Z,9.60
2023-06-12T01:40:22.713Z,10.73
2023-06-12T01:42:50.634Z,9.45
2023-06-12T01:45:18.046Z,9.63
2023-06-12T01:47:45.426Z,10.52
2023-06-12T01:50:14.786Z,9.80
2023-06-12T01:52:42.392Z,10.05
2023-06-12T01:55:10.989Z,9.05
2023-06-12T01:57:39.421Z,8.80
2023-06-12T02:00:07.490Z,9.43
2023-06-12T02:02:35.048Z,9.07
2023-06-12T02:05:02.432Z,9.05
2023-06-12T02:07:29.763Z,9.40
2023-06-12T02:09:57.065Z,9.27
2023-06-12T02:12:24.496Z,8.50
2023-06-12T02:14:51.781Z,8.80
2023-06-12T02:17:20.164Z,9.07
2023-06-12T02:19:50.327Z,8.68
2023-06-12T02:22:17.600Z,8.55
2023-06-12T02:24:45.012Z,8.00
2023-06-12T02:27:13.376Z,8.32
2023-06-12T02:29:40.897Z,8.50
2023-06-12T02:32:08.381Z,7.57
2023-06-12T02:34:35.861Z,7.82
2023-06-12T02:37:03.629Z,8.25
2023-06-12T02:39:31.030Z,8.00
2023-06-12T02:41:58.328Z,8.25
2023-06-12T02:44:25.801Z,7.75
2023-06-12T02:46:55.894Z,7.43
2023-06-12T02:49:24.945Z,7.78
2023-06-12T02:51:52.314Z,7.90
2023-06-12T02:54:20.907Z,7.80
2023-06-12T02:56:48.304Z,7.53
2023-06-12T02:59:21.117Z,7.53
2023-06-12T03:01:48.752Z,7.85
2023-06-12T03:04:18.566Z,7.68
2023-06-12T03:06:46.238Z,7.15
2023-06-12T03:09:16.814Z,7.47
2023-06-12T03:11:44.773Z,6.68
2023-06-12T03:14:15.863Z,7.40
2023-06-12T03:16:43.537Z,7.35
2023-06-12T03:19:10.883Z,6.70
2023-06-12T03:21:38.442Z,7.45
2023-06-12T03:24:06.403Z,6.65
2023-06-12T03:26:35.232Z,8.45
2023-06-12T03:29:03.013Z,7.05
2023-06-12T03:31:30.711Z,6.78
2023-06-12T03:33:58.405Z,5.95
2023-06-12T03:36:35.074Z,6.28
2023-06-12T03:39:04.336Z,6.55
2023-06-12T03:41:33.862Z,7.70
2023-06-12T03:44:01.616Z,6.70
2023-06-12T03:46:34.195Z,6.10
2023-06-12T03:49:01.992Z,6.10
2023-06-12T03:51:29.438Z,6.63
2023-06-12T03:53:56.885Z,6.20
2023-06-12T03:56:24.197Z,6.55
2023-06-12T03:58:52.263Z,6.25
2023-06-12T04:01:19.595Z,5.88
2023-06-12T04:03:49.288Z,6.18
2023-06-12T04:06:16.980Z,5.85
2023-06-12T04:08:45.648Z,6.03
2023-06-12T04:11:15.404Z,6.10
2023-06-12T04:13:43.192Z,5.93
2023-06-12T04:16:11.312Z,6.10
2023-06-12T04:18:40.113Z,5.70
2023-06-12T04:21:08.330Z,6.15
2023-06-12T04:23:38.744Z,5.45
2023-06-12T04:26:06.751Z,6.18
2023-06-12T04:28:35.325Z,5.50
2023-06-12T04:31:03.491Z,5.50
2023-06-12T04:33:31.664Z,7.15
2023-06-12T04:36:01.523Z,5.88
2023-06-12T04:38:31.637Z,5.18
2023-06-12T04:40:59.992Z,5.60
2023-06-12T04:43:27.584Z,5.82
2023-06-12T04:45:57.767Z,5.97
2023-06-12T04:48:25.937Z,6.28
2023-06-12T04:50:56.378Z,7.35
2023-06-12T04:53:29.488Z,5.32
2023-06-12T04:55:57.562Z,5.68
2023-06-12T04:58:25.456Z,5.10
2023-06-12T05:00:57.051Z,4.88
2023-06-12T05:03:28.898Z,5.85
2023-06-12T05:05:57.273Z,7.20
2023-06-12T05:08:24.694Z,5.28
2023-06-12T05:10:52.055Z,5.28
2023-06-12T05:13:19.683Z,5.25
2023-06-12T05:15:47.070Z,5.95
2023-06-12T05:18:14.472Z,5.20
2023-06-12T05:20:41.938Z,5.45
2023-06-12T05:23:09.278Z,5.15
2023-06-12T05:25:36.936Z,4.72
2023-06-12T05:28:04.880Z,4.82
2023-06-12T05:30:32.295Z,6.18
2023-06-12T05:32:59.731Z,6.28
2023-06-12T05:35:27.493Z,6.00
2023-06-12T05:37:54.822Z,5.28
2023-06-12T05:40:22.165Z,4.93
2023-06-12T05:42:49.559Z,4.75
2023-06-12T05:45:16.858Z,4.53
2023-06-12T05:47:44.230Z,4.47
2023-06-12T05:50:12.550Z,4.90
2023-06-12T05:52:40.787Z,5.80
2023-06-12T05:55:09.297Z,8.75
2023-06-12T05:57:37.394Z,4.35
2023-06-12T06:00:07.271Z,4.93
2023-06-12T06:02:34.797Z,5.10
2023-06-12T06:05:02.851Z,4.65
2023-06-12T06:07:31.691Z,4.95
2023-06-12T06:09:59.041Z,4.88
2023-06-12T06:12:26.439Z,4.55
2023-06-12T06:14:53.717Z,5.63
2023-06-12T06:17:21.692Z,6.55
2023-06-12T06:19:49.134Z,6.20
2023-06-12T06:22:18.881Z,7.88
2023-06-12T06:24:46.440Z,9.45
2023-06-12T06:27:14.232Z,6.55
2023-06-12T06:29:41.539Z,6.03
2023-06-12T06:32:09.189Z,6.32
2023-06-12T06:34:36.640Z,6.38
2023-06-12T06:37:04.101Z,5.85
2023-06-12T06:39:31.481Z,4.93
2023-06-12T06:41:58.925Z,5.88
2023-06-12T06:44:26.220Z,5.55
2023-06-12T06:46:53.683Z,6.60
2023-06-12T06:49:23.501Z,4.72
2023-06-12T06:51:50.909Z,5.13
2023-06-12T06:54:18.366Z,6.10
2023-06-12T06:56:45.968Z,4.80
2023-06-12T06:59:13.251Z,5.05
2023-06-12T07:01:40.782Z,6.57
2023-06-12T07:04:08.622Z,4.38
2023-06-12T07:06:36.083Z,4.38
2023-06-12T07:09:03.471Z,5.82
2023-06-12T07:11:30.959Z,10.15
2023-06-12T07:13:58.779Z,17.67
2023-06-12T07:16:26.184Z,16.08
2023-06-12T07:18:53.510Z,9.30
2023-06-12T07:21:21.028Z,6.00
2023-06-12T07:23:48.379Z,9.20
2023-06-12T07:26:27.119Z,15.65
2023-06-12T07:28:56.734Z,7.70
2023-06-12T07:31:27.187Z,7.85
2023-06-12T07:33:54.618Z,8.77
2023-06-12T07:36:21.956Z,6.82
2023-06-12T07:38:49.540Z,6.80
2023-06-12T07:41:16.956Z,9.80
2023-06-12T07:43:44.373Z,10.02
2023-06-12T07:46:11.776Z,16.85
2023-06-12T07:48:39.152Z,12.45
2023-06-12T07:51:06.487Z,6.97
2023-06-12T07:53:38.726Z,10.10
2023-06-12T07:56:07.703Z,9.63
2023-06-12T07:58:37.195Z,7.47
2023-06-12T08:01:08.164Z,8.63
2023-06-12T08:03:41.358Z,7.22
2023-06-12T08:06:12.458Z,9.43
2023-06-12T08:08:47.883Z,13.38
2023-06-12T08:11:16.601Z,11.35
2023-06-12T08:13:44.031Z,7.35
2023-06-12T08:16:11.536Z,6.78
2023-06-12T08:18:38.850Z,8.30
2023-06-12T08:21:06.393Z,6.22
2023-06-12T08:23:34.602Z,6.97
2023-06-12T08:26:01.972Z,7.18
2023-06-12T08:28:29.616Z,7.82
2023-06-12T08:30:59.001Z,10.23
2023-06-12T08:33:26.662Z,8.82
2023-06-12T08:35:53.967Z,7.95
2023-06-12T08:38:21.778Z,5.80
2023-06-12T08:40:53.637Z,6.93
2023-06-12T08:43:20.952Z,6.28
2023-06-12T08:45:51.652Z,6.40
2023-06-12T08:48:21.551Z,6.47
2023-06-12T08:50:49.572Z,4.72
2023-06-12T08:53:17.860Z,6.88
2023-06-12T08:55:45.777Z,4.38
2023-06-12T08:58:13.715Z,7.63
2023-06-12T09:00:41.035Z,4.28
2023-06-12T09:03:08.837Z,6.28
2023-06-12T09:05:39.743Z,5.63
2023-06-12T09:08:07.875Z,9.20
2023-06-12T09:10:36.605Z,5.80
2023-06-12T09:13:11.523Z,4.93
2023-06-12T09:15:49.965Z,6.30
2023-06-12T09:18:19.223Z,6.22
2023-06-12T09:20:49.803Z,5.35
2023-06-12T09:23:18.361Z,6.28
2023-06-12T09:26:01.645Z,4.00
2023-06-12T09:28:38.160Z,5.80
2023-06-12T09:31:06.043Z,3.72
2023-06-12T09:33:33.790Z,3.72
2023-06-12T09:36:01.702Z,3.80
2023-06-12T09:38:34.045Z,3.60
2023-06-12T09:41:04.680Z,5.82
2023-06-12T09:43:33.056Z,4.53
2023-06-12T09:46:04.609Z,4.20
2023-06-12T09:48:55.560Z,4.50
2023-06-12T09:51:24.405Z,6.13
2023-06-12T09:53:56.518Z,3.20
2023-06-12T09:56:25.995Z,9.55
2023-06-12T09:58:55.212Z,7.82
2023-06-12T10:01:22.933Z,7.45
2023-06-12T10:03:55.981Z,4.35
2023-06-12T10:06:26.075Z,4.25
2023-06-12T10:08:55.984Z,5.95
2023-06-12T10:11:23.948Z,8.63
2023-06-12T10:13:52.658Z,3.75
2023-06-12T10:16:20.731Z,4.85
2023-06-12T10:18:49.825Z,4.63
2023-06-12T10:21:18.965Z,5.65
2023-06-12T10:23:46.639Z,9.13
2023-06-12T10:26:15.139Z,5.65
2023-06-12T10:28:43.830Z,6.57
2023-06-12T10:31:18.407Z,4.20
2023-06-12T10:34:10.565Z,6.57
2023-06-12T10:36:48.901Z,4.72
2023-06-12T10:39:18.740Z,4.07
2023-06-12T10:42:00.242Z,8.60
2023-06-12T10:44:48.384Z,7.97
2023-06-12T10:47:24.910Z,6.93
2023-06-12T10:50:01.619Z,3.92
2023-06-12T10:52:29.914Z,4.72
2023-06-12T10:55:20.646Z,6.88
2023-06-12T10:58:05.168Z,4.55
2023-06-12T11:03:13.391Z,5.32
2023-06-12T11:05:48.078Z,10.50
2023-06-12T11:08:15.985Z,7.53
2023-06-12T11:10:43.794Z,6.22
2023-06-12T11:13:11.183Z,5.78
2023-06-12T11:15:47.584Z,5.60
2023-06-12T11:18:15.898Z,6.38
2023-06-12T11:20:43.750Z,6.72
2023-06-12T11:23:11.247Z,4.40
2023-06-12T11:25:46.348Z,6.03
2023-06-12T11:28:15.068Z,6.00
2023-06-12T11:31:03.080Z,5.28
2023-06-12T11:33:37.092Z,3.70
2023-06-12T11:36:04.837Z,4.10
2023-06-12T11:41:02.745Z,5.45
2023-06-12T11:43:30.993Z,4.15
2023-06-12T11:46:06.252Z,7.63
2023-06-12T11:51:04.717Z,5.40
2023-06-12T11:53:34.363Z,5.72
2023-06-12T11:58:41.993Z,8.15
2023-06-12T12:01:14.999Z,7.93
2023-06-12T12:03:46.064Z,3.80
2023-06-12T12:06:17.326Z,3.83
2023-06-12T12:08:45.610Z,3.53
2023-06-12T12:11:22.081Z,5.35
2023-06-12T12:13:57.440Z,4.53
2023-06-12T12:16:27.991Z,4.78
2023-06-12T12:18:55.855Z,4.10
2023-06-12T12:21:26.287Z,4.00
2023-06-12T12:23:55.152Z,5.93
2023-06-12T12:26:23.387Z,4.05
2023-06-12T12:28:50.778Z,3.92
2023-06-12T12:31:18.171Z,2.30
2023-06-12T12:33:45.594Z,2.80
2023-06-12T12:36:13.019Z,5.90
2023-06-12T12:38:41.157Z,2.60
2023-06-12T12:41:08.448Z,4.80
2023-06-12T12:43:35.802Z,2.60
2023-06-12T12:46:03.113Z,3.00
2023-06-12T12:48:31.366Z,6.05
2023-06-12T12:53:29.951Z,3.83
2023-06-12T12:55:57.351Z,2.28
2023-06-12T12:58:25.925Z,2.78
2023-06-12T13:00:53.287Z,2.22
2023-06-12T13:03:20.750Z,3.97
2023-06-12T13:05:48.254Z,1.85
2023-06-12T13:08:15.714Z,2.30
2023-06-12T13:10:44.277Z,4.95
2023-06-12T13:13:15.313Z,2.35
2023-06-12T13:15:44.194Z,2.50
2023-06-12T13:18:11.737Z,2.58
2023-06-12T13:20:39.223Z,2.10
2023-06-12T13:23:06.578Z,2.10
2023-06-12T13:25:33.958Z,3.17
2023-06-12T13:28:01.501Z,3.30
2023-06-12T13:30:29.711Z,2.38
2023-06-12T13:32:57.640Z,3.72
2023-06-12T13:35:25.598Z,2.13
2023-06-12T13:37:52.960Z,4.65
2023-06-12T13:40:20.547Z,5.05
2023-06-12T13:42:48.770Z,5.43
2023-06-12T13:45:16.182Z,5.07
2023-06-12T13:47:43.956Z,3.60
2023-06-12T13:50:12.526Z,3.72
2023-06-12T13:52:43.569Z,4.18
2023-06-12T13:55:11.057Z,5.90
2023-06-12T13:57:40.437Z,5.80
2023-06-12T14:00:11.765Z,4.88
2023-06-12T14:02:39.938Z,4.75
2023-06-12T14:05:10.695Z,4.22
2023-06-12T14:07:38.805Z,3.40
2023-06-12T14:10:08.599Z,4.57
2023-06-12T14:12:36.262Z,4.50
2023-06-12T14:15:05.516Z,3.20
2023-06-12T14:17:33.407Z,6.15
2023-06-12T14:20:01.552Z,3.53
2023-06-12T14:22:29.267Z,5.72
2023-06-12T14:24:56.719Z,4.80
2023-06-12T14:27:24.160Z,10.75
2023-06-12T14:29:51.575Z,4.60
2023-06-12T14:32:18.978Z,5.18
2023-06-12T14:34:46.279Z,5.93
2023-06-12T14:37:13.938Z,5.57
2023-06-12T14:39:42.781Z,8.00
2023-06-12T14:42:11.287Z,8.13
2023-06-12T14:44:38.691Z,8.80
2023-06-12T14:47:08.479Z,17.17
2023-06-12T14:49:35.982Z,13.57
2023-06-12T14:52:03.445Z,19.05
2023-06-12T14:54:30.969Z,14.90
2023-06-12T14:56:58.477Z,20.13
2023-06-12T14:59:26.413Z,16.80
2023-06-12T15:01:53.887Z,14.43
2023-06-12T15:04:21.290Z,17.92
2023-06-12T15:06:48.608Z,17.33
2023-06-12T15:09:16.022Z,21.15
2023-06-12T15:11:43.338Z,16.88
2023-06-12T15:14:10.805Z,15.85
2023-06-12T15:16:38.392Z,13.55
2023-06-12T15:19:05.890Z,15.63
2023-06-12T15:21:33.184Z,16.45
2023-06-12T15:24:00.611Z,17.30
2023-06-12T15:26:28.204Z,17.17
2023-06-12T15:28:55.564Z,17.25
2023-06-12T15:31:23.090Z,16.33
2023-06-12T15:33:50.498Z,17.25
2023-06-12T15:36:17.837Z,13.05
2023-06-12T15:38:45.898Z,13.45
2023-06-12T15:41:13.712Z,14.70
2023-06-12T15:43:41.854Z,11.88
2023-06-12T15:46:10.972Z,11.00
2023-06-12T15:48:43.185Z,14.82
2023-06-12T15:51:12.450Z,10.02
2023-06-12T15:53:43.391Z,11.68
2023-06-12T15:56:11.259Z,12.63
2023-06-12T15:58:38.773Z,10.50
2023-06-12T16:01:06.237Z,10.18
2023-06-12T16:03:34.177Z,12.00
2023-06-12T16:06:01.741Z,9.52
2023-06-12T16:08:29.301Z,9.93
2023-06-12T16:10:56.781Z,9.82
2023-06-12T16:13:24.106Z,8.40
2023-06-12T16:15:51.672Z,10.00
2023-06-12T16:18:18.979Z,8.35
2023-06-12T16:20:46.307Z,11.65
2023-06-12T16:23:13.759Z,11.93
2023-06-12T16:25:41.352Z,7.57
2023-06-12T16:28:08.831Z,10.15
2023-06-12T16:30:36.240Z,8.70
2023-06-12T16:33:06.878Z,6.80
2023-06-12T16:35:34.778Z,6.60
2023-06-12T16:38:02.168Z,6.43
2023-06-12T16:40:29.612Z,8.15
2023-06-12T16:42:57.873Z,7.10
2023-06-12T16:45:25.332Z,7.80
2023-06-12T16:47:52.750Z,6.43
2023-06-12T16:50:20.960Z,8.20
2023-06-12T16:52:48.452Z,7.25
2023-06-12T16:55:16.287Z,5.03
2023-06-12T16:57:44.618Z,6.50
2023-06-12T17:00:12.772Z,5.65
2023-06-12T17:02:40.234Z,7.38
2023-06-12T17:05:08.364Z,7.93
2023-06-12T17:07:35.895Z,6.70
2023-06-12T17:10:03.902Z,7.97
2023-06-12T17:12:31.416Z,8.55
2023-06-12T17:14:59.265Z,7.13
2023-06-12T17:17:26.652Z,5.10
2023-06-12T17:19:54.045Z,6.22
2023-06-12T17:22:21.443Z,6.05
2023-06-12T17:24:48.754Z,6.15
2023-06-12T17:27:16.145Z,5.40
2023-06-12T17:29:43.574Z,7.35
2023-06-12T17:32:11.208Z,5.57
2023-06-12T17:34:39.175Z,6.20
2023-06-12T17:37:06.519Z,4.97
2023-06-12T17:39:33.860Z,6.45
2023-06-12T17:42:01.268Z,5.50
2023-06-12T17:44:28.679Z,5.72
2023-06-12T17:46:55.967Z,4.78
2023-06-12T17:49:23.366Z,6.88
2023-06-12T17:51:50.990Z,4.75
2023-06-12T17:54:18.374Z,5.38
2023-06-12T17:56:47.248Z,5.40
2023-06-12T17:59:14.789Z,6.55
2023-06-12T18:01:42.414Z,4.70
2023-06-12T18:04:09.957Z,3.72
2023-06-12T18:06:37.641Z,5.30
2023-06-12T18:09:05.946Z,4.97
2023-06-12T18:11:33.301Z,5.97
2023-06-12T18:14:00.739Z,6.97
2023-06-12T18:16:28.103Z,4.18
2023-06-12T18:18:55.625Z,4.28
2023-06-12T18:21:23.065Z,4.25
2023-06-12T18:23:51.908Z,5.03
2023-06-12T18:26:19.584Z,4.88
2023-06-12T18:28:47.095Z,4.40
2023-06-12T18:31:14.422Z,4.47
2023-06-12T18:33:41.867Z,3.88
2023-06-12T18:36:10.254Z,3.50
2023-06-12T18:38:37.599Z,3.65
2023-06-12T18:41:05.129Z,5.47
2023-06-12T18:43:32.425Z,4.75
2023-06-12T18:45:59.715Z,5.55
2023-06-12T18:48:27.079Z,5.85
2023-06-12T18:50:55.000Z,4.07
2023-06-12T18:53:22.805Z,3.15
2023-06-12T18:55:50.426Z,3.85
2023-06-12T18:58:18.228Z,3.80
2023-06-12T19:00:45.816Z,4.82
2023-06-12T19:03:13.648Z,4.45
2023-06-12T19:05:41.554Z,3.20
2023-06-12T19:08:08.850Z,3.38
2023-06-12T19:10:36.196Z,3.60
2023-06-12T19:13:03.503Z,3.30
2023-06-12T19:15:30.928Z,4.68
2023-06-12T19:17:59.804Z,3.25
2023-06-12T19:20:27.747Z,2.88
2023-06-12T19:22:55.140Z,3.38
2023-06-12T19:25:22.518Z,3.47
2023-06-12T19:27:49.752Z,3.05
2023-06-12T19:30:18.091Z,3.53
2023-06-12T19:32:46.183Z,3.05
2023-06-12T19:35:14.142Z,4.15
2023-06-12T19:37:41.636Z,2.70
2023-06-12T19:40:11.741Z,2.70
2023-06-12T19:42:39.159Z,3.65
2023-06-12T19:45:08.957Z,3.13
2023-06-12T19:47:37.724Z,3.35
2023-06-12T19:50:05.955Z,2.85
2023-06-12T19:52:33.355Z,3.50
2023-06-12T19:55:00.718Z,2.67
2023-06-12T19:57:28.100Z,2.75
2023-06-12T19:59:55.528Z,2.47
2023-06-12T20:02:22.895Z,2.40
2023-06-12T20:04:50.544Z,3.47
2023-06-12T20:07:17.981Z,2.80
2023-06-12T20:09:45.369Z,3.45
2023-06-12T20:12:12.830Z,2.47
2023-06-12T20:14:40.314Z,2.75
2023-06-12T20:17:07.640Z,2.38
2023-06-12T20:19:35.873Z,2.80
2023-06-12T20:22:03.322Z,2.88
2023-06-12T20:24:35.276Z,2.70
2023-06-12T20:27:03.561Z,2.50
2023-06-12T20:29:30.928Z,3.08
2023-06-12T20:31:58.381Z,2.85
2023-06-12T20:34:25.909Z,2.92
2023-06-12T20:36:53.349Z,2.63
2023-06-12T20:39:20.739Z,2.80
2023-06-12T20:41:48.042Z,2.80
2023-06-12T20:44:15.422Z,3.42
2023-06-12T20:46:42.741Z,2.58
2023-06-12T20:49:10.091Z,2.13
2023-06-12T20:51:39.165Z,2.55
2023-06-12T20:54:06.663Z,4.07
2023-06-12T20:56:34.078Z,2.58
2023-06-12T20:59:01.467Z,2.50
2023-06-12T21:01:28.921Z,2.42
2023-06-12T21:03:56.382Z,3.08
2023-06-12T21:06:23.812Z,2.38
2023-06-12T21:08:59.423Z,2.38
2023-06-12T21:11:33.939Z,2.20
2023-06-12T21:14:13.467Z,2.47
2023-06-12T21:16:41.011Z,2.58
2023-06-12T21:19:10.618Z,2.40
2023-06-12T21:21:38.047Z,2.40
2023-06-12T21:24:06.256Z,2.95
2023-06-12T21:26:34.559Z,2.30
2023-06-12T21:29:01.970Z,2.55
2023-06-12T21:31:32.210Z,4.55
2023-06-12T21:34:00.385Z,2.38
2023-06-12T21:36:28.244Z,3.13
2023-06-12T21:38:55.666Z,2.33
2023-06-12T21:41:23.356Z,2.67
2023-06-12T21:43:50.794Z,2.47
2023-06-12T21:46:18.244Z,2.45
2023-06-12T21:48:45.662Z,2.35
2023-06-12T21:51:13.067Z,3.03
2023-06-12T21:53:40.505Z,3.45
2023-06-12T21:56:07.961Z,2.40
2023-06-12T21:58:35.601Z,2.28
2023-06-12T22:01:03.438Z,2.63
2023-06-12T22:03:30.953Z,2.55
2023-06-12T22:05:59.386Z,2.53
2023-06-12T22:08:27.705Z,2.60
2023-06-12T22:10:55.398Z,2.75
2023-06-12T22:13:22.844Z,2.53
2023-06-12T22:15:50.296Z,2.10
2023-06-12T22:18:17.899Z,4.15
2023-06-12T22:20:45.628Z,2.60
2023-06-12T22:23:14.586Z,3.80
2023-06-12T22:25:42.561Z,3.63
2023-06-12T22:28:10.172Z,4.43
2023-06-12T22:30:56.189Z,4.95
2023-06-12T22:33:24.998Z,7.88
2023-06-12T22:35:52.332Z,4.30
2023-06-12T22:38:19.689Z,3.88
2023-06-12T22:40:46.988Z,3.70
2023-06-12T22:43:16.320Z,5.57
2023-06-12T22:45:44.300Z,4.00
2023-06-12T22:48:11.888Z,5.65
2023-06-12T22:50:39.949Z,3.08
2023-06-12T22:53:14.118Z,4.80
2023-06-12T22:55:42.695Z,3.53
2023-06-12T22:58:10.487Z,5.93
2023-06-12T23:00:37.868Z,3.35
2023-06-12T23:03:05.328Z,3.22
2023-06-12T23:05:32.899Z,6.15
2023-06-12T23:08:00.468Z,3.40
2023-06-12T23:10:27.827Z,3.60
2023-06-12T23:12:57.076Z,3.97
2023-06-12T23:15:24.483Z,3.28
2023-06-12T23:17:52.057Z,3.75
2023-06-12T23:20:20.738Z,5.00
2023-06-12T23:22:54.627Z,3.58
2023-06-12T23:25:22.642Z,4.95
2023-06-12T23:27:58.380Z,3.50
2023-06-12T23:30:27.565Z,3.33
2023-06-12T23:32:58.204Z,3.47
2023-06-12T23:35:26.461Z,3.80
2023-06-12T23:37:54.380Z,5.45
2023-06-12T23:40:21.890Z,3.72
2023-06-12T23:42:51.528Z,4.40
2023-06-12T23:45:18.828Z,3.63
2023-06-12T23:47:46.186Z,4.85
2023-06-12T23:50:13.729Z,3.75
2023-06-12T23:52:42.210Z,3.40
2023-06-12T23:55:10.093Z,3.25
2023-06-12T23:57:37.809Z,3.40
